• Join FlightAware (Why Join?)
  • Login
  • US Flag 
08:04AM EDT


 

Airport Tracker/Info


-or-


 

Live Flight TrackerFlight Track Log ✈ CES2376 ✈ 26-Jul-2014 ✈ ZLGM / GOQ - ZLXY / XIY

Flight Track Log - Related Links

Times and Time Zones

All times are in EDT time to prevent confusion due to time zone crossing. See the CES2376 flight status page for this flight to view local times or setup timezone preferences in your user account.

Time Position Orientation Groundspeed Altitude Reporting Facility
EDT Latitude Longitude Course Direction KTS MPH feet Rate Location/Type
03:39AM 36.2092 96.9423 96° East  Level Estimated
03:40AM 36.1951 97.0857 97° East  Level Estimated
03:41AM 36.1808 97.2290 97° East  Level Estimated
03:42AM 36.1664 97.3723 97° East  Level Estimated
03:43AM 36.1518 97.5154 97° East  Level Estimated
03:44AM 36.1370 97.6586 97° East  Level Estimated
03:45AM 36.1220 97.8017 97° East  Level Estimated
03:46AM 36.1069 97.9447 97° East  Level Estimated
03:47AM 36.0916 98.0877 97° East  Level Estimated
03:48AM 36.0762 98.2306 98° East  Level Estimated
03:49AM 36.0605 98.3735 98° East  Level Estimated
03:50AM 36.0447 98.5163 98° East  Level Estimated
03:51AM 36.0288 98.6591 98° East  Level Estimated
03:52AM 36.0126 98.8018 98° East  Level Estimated
03:53AM 35.9963 98.9444 98° East  Level Estimated
03:54AM 35.9799 99.0870 98° East  Level Estimated
03:55AM 35.9632 99.2295 98° East  Level Estimated
03:56AM 35.9464 99.3720 98° East  Level Estimated
03:57AM 35.9294 99.5144 98° East  Level Estimated
03:58AM 35.9123 99.6567 98° East  Level Estimated
03:59AM 35.8950 99.7990 99° East  Level Estimated
04:00AM 35.8775 99.9412 99° East  Level Estimated
04:01AM 35.8598 100.0834 99° East  Level Estimated
04:02AM 35.8420 100.2254 99° East  Level Estimated
04:03AM 35.8240 100.3675 99° East  Level Estimated
04:04AM 35.8059 100.5094 99° East  Level Estimated
04:05AM 35.7876 100.6513 99° East  Level Estimated
04:06AM 35.7691 100.7932 99° East  Level Estimated
04:07AM 35.7504 100.9349 99° East  Level Estimated
04:08AM 35.7316 101.0766 99° East  Level Estimated
04:09AM 35.7126 101.2182 99° East  Level Estimated
04:10AM 35.6935 101.3598 99° East  Level Estimated
04:11AM 35.6741 101.5013 99° East  Level Estimated
04:12AM 35.6547 101.6427 100° East  Level Estimated
04:13AM 35.6350 101.7841 100° East  Level Estimated
04:14AM 35.6152 101.9253 100° East  Level Estimated
04:15AM 35.5952 102.0666 100° East  Level Estimated
04:16AM 35.5751 102.2077 100° East  Level Estimated
04:17AM 35.5548 102.3488 100° East  Level Estimated
04:18AM 35.5343 102.4898 100° East  Level Estimated
04:19AM 35.5137 102.6307 100° East  Level Estimated
04:20AM 35.4929 102.7716 100° East  Level Estimated
04:21AM 35.4719 102.9123 100° East  Level Estimated
04:22AM 35.4508 103.0530 100° East  Level Estimated
04:23AM 35.4295 103.1937 100° East  Level Estimated
04:24AM 35.4081 103.3342 101° East  Level Estimated
04:25AM 35.3865 103.4747 101° East  Level Estimated
04:26AM 35.3647 103.6151 101° East  Level Estimated
04:27AM 35.3427 103.7554 101° East  Level Estimated
04:28AM 35.3206 103.8957 101° East  Level Estimated
04:29AM 35.2984 104.0359 101° East  Level Estimated
04:30AM 35.2760 104.1760 101° East  Level Estimated
04:31AM 35.2534 104.3160 101° East  Level Estimated
04:32AM 35.2306 104.4559 101° East  Level Estimated
04:33AM 35.2077 104.5958 101° East  Level Estimated
04:34AM 35.1847 104.7356 101° East  Level Estimated
04:35AM 35.1614 104.8753 101° East  Level Estimated
04:36AM 35.1380 105.0149 102° East  Level Estimated
04:37AM 35.1145 105.1545 102° East  Level Estimated
04:38AM 35.0908 105.2940 102° East  Level Estimated
04:39AM 35.0669 105.4333 102° East  Level Estimated
04:40AM 35.0429 105.5726 102° East  Level Estimated
04:41AM 35.0187 105.7119 102° East  Level Estimated
04:42AM 34.9941 105.8524 102° East  Level Estimated
04:43AM 34.9693 105.9929 102° East  Level Estimated
04:44AM 34.9444 106.1333 102° East  Level Estimated
04:45AM 34.9193 106.2736 102° East  Level Estimated
04:46AM 34.8941 106.4138 102° East  Level Estimated
04:47AM 34.8687 106.5539 102° East  Level Estimated
04:48AM 34.8431 106.6940 103° East  Level Estimated
04:49AM 34.8174 106.8339 103° East  Level Estimated
04:50AM 34.7915 106.9738 103° East  Level Estimated
04:51AM 34.7655 107.1136 103° East  Level Estimated
04:52AM 34.7393 107.2533 103° East  Level Estimated
04:53AM 34.7129 107.3929 103° East  Level Estimated
04:54AM 34.6864 107.5324 103° East  Level Estimated
04:55AM 34.6597 107.6718 103° East  Level Estimated
04:56AM 34.6329 107.8111 103° East  Level Estimated
04:57AM 34.6059 107.9504 103° East  Level Estimated
04:58AM 34.5787 108.0895 103° East  Level Estimated
04:59AM 34.5514 108.2286 103° East  Level Estimated
05:00AM 34.5239 108.3676 103° East  Level Estimated
05:01AM 34.4963 108.5064 104° East  Level Estimated
05:02AM 34.4685 108.6452 104° East  Level Estimated
05:03AM 34.4471 108.7516 104° East  Level Estimated
05:04AM 34.4471 108.7516 North  Level Estimated
05:05AM 34.4471 108.7516 North  Level Estimated
05:06AM 34.4471 108.7516 North  Level Estimated
05:07AM 34.4471 108.7516 North  Level Estimated
05:08AM 34.4471 108.7516 North  Level Estimated
05:09AM 34.4471 108.7516 North  Level Estimated
05:10AM 34.4471 108.7516 North  Level Estimated
05:11AM 34.4471 108.7516 North  Level Estimated
05:12AM 34.4471 108.7516 North  Level Estimated
05:13AM 34.4471 108.7516 North  Level Estimated
05:14AM 34.4471 108.7516 North  Level Estimated
05:15AM 34.4471 108.7516 North  Level Estimated
05:16AM 34.4471 108.7516 North  Level Estimated
05:17AM 34.4471 108.7516 North  Level Estimated
05:18AM 34.4471 108.7516 North  Level Estimated
05:19AM 34.4471 108.7516 North  Level Estimated
05:20AM 34.4471 108.7516 North  Level Estimated
05:21AM 34.4471 108.7516 North  Level Estimated
05:22AM 34.4471 108.7516 North  Level Estimated